createdAt,value
2019-04-27T00:00:17.454Z,3.77
2019-04-27T00:03:02.245Z,3.80
2019-04-27T00:05:35.477Z,3.60
2019-04-27T00:08:07.855Z,3.67
2019-04-27T00:10:37.644Z,3.42
2019-04-27T00:13:07.901Z,3.93
2019-04-27T00:15:39.020Z,3.70
2019-04-27T00:18:14.015Z,3.73
2019-04-27T00:20:54.783Z,4.23
2019-04-27T00:23:25.894Z,4.00
2019-04-27T00:25:55.392Z,5.40
2019-04-27T00:28:25.066Z,3.80
2019-04-27T00:30:54.582Z,3.67
2019-04-27T00:33:24.132Z,3.47
2019-04-27T00:35:55.255Z,3.43
2019-04-27T00:38:29.395Z,3.60
2019-04-27T00:41:03.460Z,3.17
2019-04-27T00:43:32.947Z,3.40
2019-04-27T00:46:04.091Z,3.50
2019-04-27T00:48:33.605Z,3.90
2019-04-27T00:51:04.261Z,3.97
2019-04-27T00:53:33.857Z,3.70
2019-04-27T00:56:21.036Z,3.63
2019-04-27T00:59:10.027Z,3.60
2019-04-27T01:01:41.167Z,3.80
2019-04-27T01:04:17.938Z,4.00
2019-04-27T01:06:47.420Z,3.57
2019-04-27T01:09:18.156Z,3.50
2019-04-27T01:11:47.619Z,3.23
2019-04-27T01:14:17.155Z,3.60
2019-04-27T01:16:46.699Z,3.63
2019-04-27T01:19:16.169Z,3.30
2019-04-27T01:21:46.902Z,3.80
2019-04-27T01:24:16.372Z,3.80
2019-04-27T01:26:53.423Z,3.85
2019-04-27T01:29:24.553Z,3.97
2019-04-27T01:31:54.031Z,3.33
2019-04-27T01:34:23.795Z,3.15
2019-04-27T01:36:53.266Z,3.10
2019-04-27T01:39:23.402Z,3.00
2019-04-27T01:41:52.944Z,3.10
2019-04-27T01:44:22.463Z,4.42
2019-04-27T01:46:51.933Z,3.93
2019-04-27T01:49:21.416Z,3.53
2019-04-27T01:51:50.943Z,3.50
2019-04-27T01:54:22.101Z,3.90
2019-04-27T01:56:51.568Z,3.33
2019-04-27T01:59:21.108Z,3.10
2019-04-27T02:01:58.762Z,3.33
2019-04-27T02:04:46.114Z,2.97
2019-04-27T02:07:15.599Z,2.90
2019-04-27T02:09:45.082Z,2.80
2019-04-27T02:12:14.592Z,2.60
2019-04-27T02:14:45.310Z,2.60
2019-04-27T02:17:14.833Z,2.17
2019-04-27T02:19:44.376Z,2.50
2019-04-27T02:22:13.928Z,2.50
2019-04-27T02:24:43.430Z,2.37
2019-04-27T02:27:15.448Z,2.27
2019-04-27T02:30:02.590Z,2.20
2019-04-27T02:32:33.685Z,1.90
2019-04-27T02:35:04.800Z,2.10
2019-04-27T02:37:34.296Z,2.00
2019-04-27T02:40:05.374Z,1.80
2019-04-27T02:42:36.494Z,2.20
2019-04-27T02:45:09.536Z,1.90
2019-04-27T02:47:40.696Z,1.53
2019-04-27T02:50:10.727Z,1.60
2019-04-27T02:52:41.976Z,1.70
2019-04-27T02:55:11.515Z,1.60
2019-04-27T02:57:41.003Z,1.80
2019-04-27T03:00:11.941Z,1.57
2019-04-27T03:02:43.152Z,1.87
2019-04-27T03:05:19.559Z,1.60
2019-04-27T03:07:50.354Z,1.50
2019-04-27T03:10:19.987Z,1.70
2019-04-27T03:12:51.175Z,1.60
2019-04-27T03:15:24.860Z,1.60
2019-04-27T03:18:01.558Z,1.43
2019-04-27T03:20:35.405Z,1.53
2019-04-27T03:23:06.527Z,1.50
2019-04-27T03:25:43.344Z,1.40
2019-04-27T03:28:13.945Z,1.30
2019-04-27T03:30:43.824Z,1.40
2019-04-27T03:33:13.377Z,1.30
2019-04-27T03:35:43.965Z,1.27
2019-04-27T03:38:13.782Z,1.30
2019-04-27T03:40:43.361Z,1.27
2019-04-27T03:43:19.772Z,1.57
2019-04-27T03:45:51.754Z,1.37
2019-04-27T03:48:20.515Z,1.40
2019-04-27T03:50:54.154Z,1.30
2019-04-27T03:53:40.972Z,1.43
2019-04-27T03:56:16.030Z,1.50
2019-04-27T03:58:53.422Z,1.55
2019-04-27T04:01:22.903Z,1.50
2019-04-27T04:03:52.461Z,1.60
2019-04-27T04:06:22.121Z,1.70
2019-04-27T04:08:55.040Z,1.60
2019-04-27T04:11:31.452Z,1.57
2019-04-27T04:14:05.502Z,1.83
2019-04-27T04:16:36.609Z,1.80
2019-04-27T04:19:09.779Z,1.80
2019-04-27T04:21:40.000Z,2.00
2019-04-27T04:24:12.175Z,1.82
2019-04-27T04:26:41.020Z,1.70
2019-04-27T04:29:10.744Z,2.00
2019-04-27T04:31:41.438Z,1.90
2019-04-27T04:34:12.096Z,1.70
2019-04-27T04:36:42.666Z,2.07
2019-04-27T04:39:12.916Z,1.90
2019-04-27T04:41:44.031Z,2.00
2019-04-27T04:44:30.334Z,2.00
2019-04-27T04:47:10.312Z,1.90
2019-04-27T04:49:39.818Z,1.77
2019-04-27T04:52:09.777Z,2.10
2019-04-27T04:54:40.910Z,2.30
2019-04-27T04:57:10.460Z,1.73
2019-04-27T04:59:39.979Z,1.90
2019-04-27T05:02:10.628Z,2.10
2019-04-27T05:04:40.380Z,1.70
2019-04-27T05:07:09.880Z,1.90
2019-04-27T05:09:39.597Z,1.90
2019-04-27T05:12:09.187Z,1.80
2019-04-27T05:14:38.973Z,1.60
2019-04-27T05:17:09.499Z,1.63
2019-04-27T05:19:39.042Z,1.60
2019-04-27T05:22:09.332Z,1.90
2019-04-27T05:24:39.462Z,1.75
2019-04-27T05:27:09.314Z,1.77
2019-04-27T05:29:39.058Z,1.70
2019-04-27T05:32:09.147Z,1.53
2019-04-27T05:34:39.444Z,1.87
2019-04-27T05:37:09.094Z,1.60
2019-04-27T05:39:39.006Z,1.50
2019-04-27T05:42:12.518Z,1.83
2019-04-27T05:44:59.448Z,1.57
2019-04-27T05:47:30.585Z,1.70
2019-04-27T05:50:01.687Z,1.50
2019-04-27T05:52:31.184Z,1.70
2019-04-27T05:55:00.942Z,1.80
2019-04-27T05:57:31.464Z,1.60
2019-04-27T06:00:02.082Z,1.73
2019-04-27T06:02:32.071Z,1.70
2019-04-27T06:05:01.531Z,1.47
2019-04-27T06:07:31.017Z,1.70
2019-04-27T06:10:00.527Z,1.30
2019-04-27T06:12:30.013Z,1.53
2019-04-27T06:15:00.155Z,1.45
2019-04-27T06:17:30.231Z,1.50
2019-04-27T06:19:59.871Z,1.50
2019-04-27T06:22:29.572Z,1.20
2019-04-27T06:25:00.009Z,1.60
2019-04-27T06:27:30.757Z,1.47
2019-04-27T06:30:00.534Z,1.50
2019-04-27T06:32:30.040Z,1.40
2019-04-27T06:34:59.619Z,1.20
2019-04-27T06:37:29.562Z,1.43
2019-04-27T06:39:59.867Z,1.40
2019-04-27T06:42:29.957Z,1.50
2019-04-27T06:45:00.046Z,1.60
2019-04-27T06:47:29.863Z,1.43
2019-04-27T06:49:59.377Z,1.30
2019-04-27T06:52:29.282Z,1.37
2019-04-27T06:55:00.614Z,1.17
2019-04-27T06:57:30.186Z,1.40
2019-04-27T06:59:59.670Z,1.40
2019-04-27T07:02:29.298Z,1.30
2019-04-27T07:04:59.326Z,1.30
2019-04-27T07:07:29.487Z,1.50
2019-04-27T07:09:59.546Z,1.42
2019-04-27T07:12:29.107Z,1.50
2019-04-27T07:14:59.171Z,1.20
2019-04-27T07:17:29.201Z,1.30
2019-04-27T07:19:59.511Z,1.00
2019-04-27T07:22:29.843Z,1.27
2019-04-27T07:24:59.525Z,1.47
2019-04-27T07:27:29.258Z,1.30
2019-04-27T07:29:59.565Z,1.10
2019-04-27T07:32:29.972Z,1.42
2019-04-27T07:34:59.446Z,1.80
2019-04-27T07:37:29.413Z,1.30
2019-04-27T07:39:59.281Z,1.10
2019-04-27T07:42:31.541Z,1.17
2019-04-27T07:45:16.924Z,1.20
2019-04-27T07:47:49.269Z,1.20
2019-04-27T07:50:19.430Z,1.20
2019-04-27T07:52:48.943Z,1.37
2019-04-27T07:55:18.778Z,1.10
2019-04-27T07:57:49.478Z,1.00
2019-04-27T08:00:20.928Z,3.15
2019-04-27T08:02:50.430Z,1.70
2019-04-27T08:05:19.927Z,2.40
2019-04-27T08:07:49.473Z,2.13
2019-04-27T08:10:19.455Z,1.70
2019-04-27T08:12:49.831Z,10.27
2019-04-27T08:15:19.447Z,3.08
2019-04-27T08:17:49.355Z,1.27
2019-04-27T08:20:21.036Z,1.50
2019-04-27T08:22:50.103Z,1.40
2019-04-27T08:25:19.717Z,1.20
2019-04-27T08:27:51.483Z,1.50
2019-04-27T08:30:29.441Z,2.40
2019-04-27T08:33:00.642Z,2.62
2019-04-27T08:35:32.589Z,1.25
2019-04-27T08:38:01.362Z,1.60
2019-04-27T08:40:30.856Z,1.50
2019-04-27T08:43:00.345Z,1.40
2019-04-27T08:45:29.870Z,1.30
2019-04-27T08:47:59.944Z,1.30
2019-04-27T08:50:29.416Z,1.20
2019-04-27T08:53:00.678Z,1.20
2019-04-27T08:55:30.295Z,1.20
2019-04-27T08:57:59.792Z,1.10
2019-04-27T09:00:29.270Z,1.10
2019-04-27T09:02:59.562Z,1.00
2019-04-27T09:05:29.210Z,1.10
2019-04-27T09:08:02.761Z,1.17
2019-04-27T09:10:38.668Z,1.13
2019-04-27T09:13:15.684Z,0.90
2019-04-27T09:15:49.485Z,1.20
2019-04-27T09:18:20.628Z,1.13
2019-04-27T09:20:53.024Z,1.10
2019-04-27T09:23:22.613Z,1.00
2019-04-27T09:25:52.087Z,0.90
2019-04-27T09:28:21.854Z,0.93
2019-04-27T09:30:51.444Z,0.90
2019-04-27T09:33:22.347Z,0.80
2019-04-27T09:35:51.958Z,0.93
2019-04-27T09:38:21.448Z,1.27
2019-04-27T09:40:50.938Z,0.97
2019-04-27T09:43:20.445Z,1.00
2019-04-27T09:45:49.926Z,0.70
2019-04-27T09:48:19.510Z,0.80
2019-04-27T09:50:49.005Z,0.90
2019-04-27T09:53:18.487Z,0.87
2019-04-27T09:55:48.090Z,0.70
2019-04-27T09:58:18.449Z,0.70
2019-04-27T10:00:49.441Z,0.60
2019-04-27T10:03:18.926Z,0.50
2019-04-27T10:05:48.439Z,0.70
2019-04-27T10:08:17.959Z,0.80
2019-04-27T10:10:47.966Z,0.77
2019-04-27T10:13:17.563Z,0.50
2019-04-27T10:15:47.059Z,0.80
2019-04-27T10:18:16.536Z,0.80
2019-04-27T10:20:56.919Z,0.60
2019-04-27T10:23:17.225Z,0.90
2019-04-27T10:25:46.782Z,0.70
2019-04-27T10:28:16.271Z,0.70
2019-04-27T10:30:45.871Z,0.73
2019-04-27T10:33:16.117Z,0.70
2019-04-27T10:35:47.246Z,0.50
2019-04-27T10:38:17.335Z,0.55
2019-04-27T10:40:46.876Z,0.70
2019-04-27T10:43:16.371Z,0.60
2019-04-27T10:45:46.402Z,0.60
2019-04-27T10:48:16.375Z,0.80
2019-04-27T10:50:47.149Z,2.00
2019-04-27T10:53:16.970Z,2.50
2019-04-27T10:55:46.600Z,1.10
2019-04-27T10:58:16.174Z,1.50
2019-04-27T11:00:56.488Z,1.10
2019-04-27T11:03:46.196Z,0.73
2019-04-27T11:06:16.049Z,0.47
2019-04-27T11:08:46.487Z,1.02
2019-04-27T11:11:16.742Z,0.80
2019-04-27T11:13:46.415Z,0.93
2019-04-27T11:16:15.881Z,0.80
2019-04-27T11:18:47.046Z,0.95
2019-04-27T11:21:16.619Z,0.88
2019-04-27T11:23:46.146Z,0.90
2019-04-27T11:26:16.020Z,0.80
2019-04-27T11:28:46.316Z,1.20
2019-04-27T11:31:17.300Z,0.80
2019-04-27T11:33:46.774Z,0.80
2019-04-27T11:36:17.083Z,0.80
2019-04-27T11:38:48.800Z,0.80
2019-04-27T11:41:18.609Z,0.80
2019-04-27T11:43:48.092Z,0.80
2019-04-27T11:46:17.584Z,1.30
2019-04-27T11:48:47.070Z,0.85
2019-04-27T11:51:17.438Z,1.00
2019-04-27T11:53:47.134Z,0.70
2019-04-27T11:56:17.778Z,0.77
2019-04-27T11:58:48.831Z,0.80
2019-04-27T12:01:18.415Z,0.70
2019-04-27T12:03:47.911Z,0.80
2019-04-27T12:06:17.384Z,1.00
2019-04-27T12:08:46.877Z,0.93
2019-04-27T12:11:16.464Z,1.37
2019-04-27T12:13:46.212Z,1.00
2019-04-27T12:16:17.630Z,1.00
2019-04-27T12:18:49.119Z,1.03
2019-04-27T12:21:18.367Z,1.10
2019-04-27T12:23:47.876Z,1.27
2019-04-27T12:26:28.175Z,1.20
2019-04-27T12:28:58.925Z,1.10
2019-04-27T12:31:35.989Z,0.90
2019-04-27T12:34:06.098Z,0.93
2019-04-27T12:36:35.964Z,0.93
2019-04-27T12:39:12.468Z,1.17
2019-04-27T12:41:43.453Z,1.07
2019-04-27T12:44:13.173Z,0.70
2019-04-27T12:46:43.127Z,0.70
2019-04-27T12:49:12.903Z,0.70
2019-04-27T12:51:42.501Z,0.77
2019-04-27T12:54:13.640Z,0.70
2019-04-27T12:56:53.545Z,0.97
2019-04-27T12:59:26.177Z,0.70
2019-04-27T13:01:56.198Z,0.60
2019-04-27T13:04:25.687Z,0.50
2019-04-27T13:06:55.906Z,0.70
2019-04-27T13:09:25.694Z,0.62
2019-04-27T13:11:56.000Z,0.82
2019-04-27T13:14:26.325Z,0.70
2019-04-27T13:16:56.151Z,0.60
2019-04-27T13:19:25.924Z,0.70
2019-04-27T13:21:55.953Z,0.77
2019-04-27T13:24:26.069Z,0.70
2019-04-27T13:26:56.670Z,0.60
2019-04-27T13:29:26.206Z,0.60
2019-04-27T13:31:57.600Z,0.90
2019-04-27T13:34:26.895Z,0.80
2019-04-27T13:36:57.601Z,0.90
2019-04-27T13:39:27.346Z,0.80
2019-04-27T13:41:56.988Z,0.60
2019-04-27T13:44:26.479Z,0.70
2019-04-27T13:47:13.545Z,0.65
2019-04-27T13:49:47.351Z,0.80
2019-04-27T13:52:18.457Z,0.60
2019-04-27T13:54:47.948Z,0.50
2019-04-27T13:57:18.379Z,0.70
2019-04-27T13:59:48.036Z,0.70
2019-04-27T14:02:19.149Z,0.57
2019-04-27T14:04:48.785Z,0.70
2019-04-27T14:07:18.281Z,0.80
2019-04-27T14:09:48.935Z,0.70
2019-04-27T14:12:21.264Z,0.70
2019-04-27T14:14:51.058Z,0.80
2019-04-27T14:17:20.666Z,0.90
2019-04-27T14:19:50.101Z,0.70
2019-04-27T14:22:19.637Z,0.90
2019-04-27T14:24:49.191Z,0.80
2019-04-27T14:27:20.326Z,0.60
2019-04-27T14:29:49.848Z,0.80
2019-04-27T14:32:20.030Z,0.62
2019-04-27T14:34:50.358Z,0.50
2019-04-27T14:37:19.926Z,0.60
2019-04-27T14:39:49.513Z,0.60
2019-04-27T14:42:19.265Z,0.67
2019-04-27T14:44:49.098Z,0.70
2019-04-27T14:47:18.935Z,0.70
2019-04-27T14:49:49.108Z,0.60
2019-04-27T14:52:18.963Z,0.43
2019-04-27T14:54:50.808Z,0.70
2019-04-27T14:57:20.396Z,0.77
2019-04-27T14:59:50.417Z,0.60
2019-04-27T15:02:19.949Z,0.60
2019-04-27T15:04:49.473Z,0.50
2019-04-27T15:07:19.001Z,1.00
2019-04-27T15:09:49.626Z,1.82
2019-04-27T15:12:24.420Z,1.40
2019-04-27T15:14:53.346Z,1.30
2019-04-27T15:17:25.574Z,2.00
2019-04-27T15:19:57.903Z,0.80
2019-04-27T15:22:30.074Z,0.80
2019-04-27T15:25:10.866Z,0.80
2019-04-27T15:27:37.461Z,0.70
2019-04-27T15:30:11.110Z,0.70
2019-04-27T15:32:49.438Z,0.63
2019-04-27T15:35:22.983Z,0.50
2019-04-27T15:37:56.577Z,0.70
2019-04-27T15:40:50.596Z,0.60
2019-04-27T15:43:18.383Z,0.90
2019-04-27T15:45:48.686Z,0.63
2019-04-27T15:48:20.216Z,1.00
2019-04-27T15:50:49.524Z,0.83
2019-04-27T15:53:19.027Z,1.00
2019-04-27T15:55:49.751Z,1.27
2019-04-27T15:58:25.125Z,1.80
2019-04-27T16:00:56.285Z,0.80
2019-04-27T16:03:22.659Z,1.07
2019-04-27T16:05:53.473Z,1.93
2019-04-27T16:08:23.914Z,0.90
2019-04-27T16:10:53.459Z,1.70
2019-04-27T16:13:26.401Z,0.50
2019-04-27T16:15:55.234Z,0.50
2019-04-27T16:18:28.514Z,0.60
2019-04-27T16:20:55.898Z,0.60
2019-04-27T16:23:25.400Z,0.83
2019-04-27T16:25:54.890Z,0.70
2019-04-27T16:28:24.376Z,0.90
2019-04-27T16:30:54.150Z,0.80
2019-04-27T16:33:23.693Z,0.90
2019-04-27T16:36:00.309Z,0.87
2019-04-27T16:38:44.063Z,0.90
2019-04-27T16:41:13.672Z,0.70
2019-04-27T16:43:45.501Z,0.53
2019-04-27T16:46:14.746Z,0.50
2019-04-27T16:48:44.222Z,0.53
2019-04-27T16:51:13.759Z,0.40
2019-04-27T16:53:43.298Z,0.90
2019-04-27T16:56:14.819Z,0.70
2019-04-27T16:58:49.074Z,0.60
2019-04-27T17:01:24.218Z,1.10
2019-04-27T17:03:54.226Z,0.60
2019-04-27T17:06:23.776Z,0.70
2019-04-27T17:08:57.394Z,0.90
2019-04-27T17:11:24.488Z,0.90
2019-04-27T17:13:59.058Z,0.80
2019-04-27T17:16:45.067Z,0.90
2019-04-27T17:19:16.171Z,0.90
2019-04-27T17:21:45.676Z,1.40
2019-04-27T17:24:18.025Z,2.20
2019-04-27T17:26:47.852Z,1.37
2019-04-27T17:29:20.472Z,1.60
2019-04-27T17:31:55.163Z,1.80
2019-04-27T17:34:25.336Z,1.37
2019-04-27T17:36:56.391Z,1.80
2019-04-27T17:39:25.419Z,1.90
2019-04-27T17:41:54.929Z,1.93
2019-04-27T17:44:24.412Z,1.50
2019-04-27T17:46:53.909Z,1.60
2019-04-27T17:49:23.426Z,1.77
2019-04-27T17:51:52.968Z,1.13
2019-04-27T17:54:22.446Z,1.20
2019-04-27T17:56:52.539Z,0.90
2019-04-27T17:59:23.407Z,1.00
2019-04-27T18:01:53.839Z,0.80
2019-04-27T18:04:24.105Z,0.90
2019-04-27T18:06:55.649Z,0.83
2019-04-27T18:09:24.800Z,0.90
2019-04-27T18:11:54.665Z,0.70
2019-04-27T18:14:24.197Z,0.73
2019-04-27T18:16:53.703Z,1.10
2019-04-27T18:19:33.685Z,1.27
2019-04-27T18:22:04.849Z,0.90
2019-04-27T18:24:37.887Z,1.17
2019-04-27T18:27:09.110Z,0.90
2019-04-27T18:29:38.746Z,0.90
2019-04-27T18:32:08.883Z,0.70
2019-04-27T18:34:38.936Z,0.90
2019-04-27T18:37:08.760Z,1.00
2019-04-27T18:39:38.789Z,0.67
2019-04-27T18:42:09.442Z,1.10
2019-04-27T18:44:38.930Z,1.57
2019-04-27T18:47:08.576Z,1.00
2019-04-27T18:49:39.672Z,1.10
2019-04-27T18:52:22.623Z,1.70
2019-04-27T18:54:52.453Z,1.65
2019-04-27T18:57:21.966Z,4.13
2019-04-27T18:59:51.476Z,3.90
2019-04-27T19:02:20.945Z,1.40
2019-04-27T19:04:50.477Z,1.60
2019-04-27T19:07:20.599Z,1.20
2019-04-27T19:09:50.275Z,1.37
2019-04-27T19:12:20.491Z,1.00
2019-04-27T19:14:50.111Z,1.00
2019-04-27T19:17:20.034Z,1.10
2019-04-27T19:19:49.755Z,1.00
2019-04-27T19:22:19.241Z,1.30
2019-04-27T19:24:48.733Z,1.13
2019-04-27T19:27:35.924Z,1.73
2019-04-27T19:30:11.575Z,1.30
2019-04-27T19:32:41.052Z,1.43
2019-04-27T19:35:10.531Z,2.30
2019-04-27T19:37:40.058Z,1.50
2019-04-27T19:40:09.751Z,1.60
2019-04-27T19:42:39.247Z,1.70
2019-04-27T19:45:08.870Z,1.43
2019-04-27T19:47:38.443Z,1.23
2019-04-27T19:50:10.314Z,1.10
2019-04-27T19:52:39.871Z,1.20
2019-04-27T19:55:09.429Z,1.47
2019-04-27T19:57:42.033Z,1.60
2019-04-27T20:00:15.257Z,1.40
2019-04-27T20:02:44.764Z,1.60
2019-04-27T20:05:16.426Z,1.60
2019-04-27T20:07:46.034Z,1.70
2019-04-27T20:10:15.553Z,2.50
2019-04-27T20:12:45.028Z,1.50
2019-04-27T20:15:14.587Z,1.60
2019-04-27T20:17:44.060Z,1.90
2019-04-27T20:20:13.774Z,1.90
2019-04-27T20:22:43.263Z,1.50
2019-04-27T20:25:12.873Z,1.50
2019-04-27T20:27:46.893Z,1.60
2019-04-27T20:30:14.545Z,1.50
2019-04-27T20:32:44.010Z,1.60
2019-04-27T20:35:13.475Z,1.63
2019-04-27T20:37:42.971Z,1.77
2019-04-27T20:40:13.695Z,2.00
2019-04-27T20:42:43.204Z,1.70
2019-04-27T20:45:12.691Z,1.80
2019-04-27T20:47:42.236Z,1.60
2019-04-27T20:50:12.095Z,1.90
2019-04-27T20:52:41.329Z,2.13
2019-04-27T20:55:13.011Z,2.40
2019-04-27T20:57:42.542Z,2.08
2019-04-27T21:00:13.990Z,2.20
2019-04-27T21:03:02.653Z,2.10
2019-04-27T21:05:36.361Z,2.33
2019-04-27T21:08:11.688Z,2.07
2019-04-27T21:10:41.446Z,1.77
2019-04-27T21:13:11.328Z,2.40
2019-04-27T21:15:41.912Z,1.77
2019-04-27T21:18:11.651Z,2.60
2019-04-27T21:20:41.319Z,1.50
2019-04-27T21:23:12.086Z,1.43
2019-04-27T21:25:42.216Z,1.60
2019-04-27T21:28:17.972Z,1.43
2019-04-27T21:30:42.952Z,1.10
2019-04-27T21:33:12.471Z,1.13
2019-04-27T21:35:42.651Z,1.00
2019-04-27T21:38:12.162Z,0.90
2019-04-27T21:40:41.617Z,1.20
2019-04-27T21:43:11.390Z,1.07
2019-04-27T21:45:41.990Z,1.50
2019-04-27T21:48:11.529Z,1.27
2019-04-27T21:50:41.421Z,1.40
2019-04-27T21:53:12.543Z,1.70
2019-04-27T21:55:42.254Z,1.53
2019-04-27T21:58:11.822Z,1.30
2019-04-27T22:00:42.839Z,1.40
2019-04-27T22:03:21.452Z,1.40
2019-04-27T22:05:51.585Z,1.53
2019-04-27T22:08:21.515Z,1.10
2019-04-27T22:10:50.921Z,1.02
2019-04-27T22:13:22.192Z,1.10
2019-04-27T22:15:51.758Z,1.00
2019-04-27T22:18:21.345Z,1.10
2019-04-27T22:20:51.175Z,1.17
2019-04-27T22:23:23.210Z,1.00
2019-04-27T22:25:54.612Z,1.00
2019-04-27T22:28:23.924Z,1.27
2019-04-27T22:30:53.702Z,1.27
2019-04-27T22:33:23.485Z,1.32
2019-04-27T22:35:52.953Z,1.00
2019-04-27T22:38:22.449Z,1.03
2019-04-27T22:41:13.078Z,1.20
2019-04-27T22:44:01.344Z,1.20
2019-04-27T22:46:32.539Z,1.80
2019-04-27T22:49:02.015Z,1.87
2019-04-27T22:51:32.446Z,1.50
2019-04-27T22:54:01.934Z,1.50
2019-04-27T22:56:32.114Z,1.50
2019-04-27T22:59:11.003Z,1.37
2019-04-27T23:01:42.662Z,2.70
2019-04-27T23:04:16.243Z,1.63
2019-04-27T23:06:45.726Z,1.50
2019-04-27T23:09:15.200Z,1.80
2019-04-27T23:11:44.668Z,1.77
2019-04-27T23:14:14.188Z,1.50
2019-04-27T23:16:48.103Z,1.50
2019-04-27T23:19:17.588Z,1.30
2019-04-27T23:21:47.103Z,1.30
2019-04-27T23:24:16.602Z,1.73
2019-04-27T23:26:46.074Z,1.33
2019-04-27T23:29:16.069Z,1.37
2019-04-27T23:31:58.977Z,1.90
2019-04-27T23:34:28.463Z,1.60
2019-04-27T23:36:57.962Z,1.73
2019-04-27T23:39:27.446Z,1.70
2019-04-27T23:41:56.935Z,1.20
2019-04-27T23:44:26.401Z,1.17
2019-04-27T23:46:55.996Z,1.30
2019-04-27T23:49:25.493Z,1.60
2019-04-27T23:51:59.296Z,1.57
2019-04-27T23:54:28.787Z,1.50
2019-04-27T23:56:58.259Z,1.77
2019-04-27T23:59:27.739Z,1.40
